首页
METAR-TAF:

METAR-TAF

机场 :

弗林特, 密歇根州, 美国

纬度: 42-58-00N, 经度: 083-44-58W, 海拔: 238米

当前天气观测

该预报发布于9分钟前的11:01 UTC
静风
温度 16°C
湿度 100%
气压 1017 hPa
能見度: 1.6公里
轻雾

METAR: KFNT 231101Z AUTO 00000KT 1SM R09/3500VP6000FT BR VV004 16/16 A3002 RMK AO2 T01610161

时间: 07:10 (11:10 UTC)

预报

该预报发布于2小时和15分钟前的08:55 UTC
预报有效从23日的 09点(UTC)到 24日的 06点(UTC)
风速3节,风向多变
能見度: 1.6公里
层高于500英尺
轻雾
短暂存在
从 23日的 09点(UTC)到 23日的 11点(UTC)
能見度: 0.8公里
层高于200英尺
从 23日的 1200点(UTC)
风速3节,风向南转西南
能見度: 10公里
散云层高于5000英尺
多云层高于15000英尺
从 23日的 1700点(UTC)
风速7节,风向西南
能見度: 10公里
散云层高于4000英尺
多云层高于6000英尺
从 24日的 0100点(UTC)
风速5节,风向西南
能見度: 10公里
散云层高于7000英尺
多云层高于15000英尺
几率 30%
从 24日的 02点(UTC)到 24日的 06点(UTC)
能見度: 6.4公里
多云层高于5000英尺, 积雨云.
阴天层高于7000英尺
雷暴, 雨, 轻雾,

TAF: KFNT 230855Z 2309/2406 VRB03KT 1SM BR VV005 TEMPO 2309/2311 1/2SM FG VV002 FM231200 21003KT P6SM SCT050 BKN150 FM231700 22007KT P6SM SCT040 BKN060 FM240100 23005KT P6SM SCT070 BKN150 PROB30 2402/2406 4SM TSRA BR BKN050CB OVC070

超过4000个机场的气象观测和天气预报(METAR&TAF报告)。

可查询的气象台以黄色和红色小点在地图上表示。

将鼠标移到小点上方,可查看气象台名称。

然后点击查看天气观测和预报。

如需切换地图:点击带黑十字的绿色按钮放大地图;点击带横线的绿色按钮缩小地图;或者点击绿色箭头查看邻近地区的地图。


METAR-TAF: